createdAt,value
2022-08-25T00:00:34.997Z,7.00
2022-08-25T00:05:37.753Z,6.90
2022-08-25T00:10:41.755Z,6.88
2022-08-25T00:15:44.036Z,7.47
2022-08-25T00:20:49.077Z,7.47
2022-08-25T00:25:51.550Z,7.15
2022-08-25T00:30:53.792Z,7.07
2022-08-25T00:35:56.430Z,7.70
2022-08-25T00:41:07.936Z,8.18
2022-08-25T00:46:10.974Z,8.70
2022-08-25T00:51:17.093Z,8.98
2022-08-25T00:56:19.635Z,9.48
2022-08-25T01:01:24.175Z,11.30
2022-08-25T01:06:31.364Z,11.50
2022-08-25T01:11:35.132Z,13.73
2022-08-25T01:16:38.981Z,11.93
2022-08-25T01:21:45.335Z,12.07
2022-08-25T01:26:47.884Z,11.32
2022-08-25T01:31:58.889Z,12.85
2022-08-25T01:37:01.291Z,12.67
2022-08-25T01:42:04.272Z,12.20
2022-08-25T01:47:07.907Z,11.75
2022-08-25T01:52:21.866Z,9.30
2022-08-25T01:57:24.399Z,14.38
2022-08-25T02:02:26.582Z,14.10
2022-08-25T02:07:28.953Z,13.57
2022-08-25T02:12:32.704Z,14.73
2022-08-25T02:17:54.834Z,14.27
2022-08-25T02:22:57.254Z,16.45
2022-08-25T02:27:59.937Z,16.63
2022-08-25T02:33:02.376Z,17.67
2022-08-25T02:38:05.017Z,17.80
2022-08-25T02:43:07.278Z,17.35
2022-08-25T02:48:09.403Z,19.10
2022-08-25T02:53:12.491Z,20.55
2022-08-25T02:58:15.829Z,20.10
2022-08-25T03:03:18.182Z,16.00
2022-08-25T03:08:21.338Z,16.92
2022-08-25T03:13:23.549Z,14.88
2022-08-25T03:18:25.782Z,13.30
2022-08-25T03:23:27.902Z,16.45
2022-08-25T03:28:33.061Z,19.92
2022-08-25T03:33:36.478Z,21.33
2022-08-25T03:38:38.971Z,23.08
2022-08-25T03:43:41.595Z,22.20
2022-08-25T03:48:43.732Z,22.92
2022-08-25T03:53:45.902Z,23.23
2022-08-25T03:58:48.068Z,24.98
2022-08-25T04:03:50.411Z,24.75
2022-08-25T04:08:55.625Z,28.60
2022-08-25T04:13:59.491Z,25.00
2022-08-25T04:19:05.992Z,26.13
2022-08-25T04:24:10.575Z,23.25
2022-08-25T04:29:14.641Z,25.58
2022-08-25T04:34:29.890Z,21.50
2022-08-25T04:39:33.905Z,22.83
2022-08-25T04:44:36.090Z,17.75
2022-08-25T04:49:38.271Z,16.92
2022-08-25T04:54:40.476Z,18.50
2022-08-25T04:59:42.739Z,15.13
2022-08-25T05:04:45.155Z,15.52
2022-08-25T05:09:47.363Z,14.35
2022-08-25T05:14:53.439Z,14.18
2022-08-25T05:19:55.607Z,11.40
2022-08-25T05:24:58.065Z,12.95
2022-08-25T05:30:00.221Z,12.13
2022-08-25T05:35:02.480Z,12.23
2022-08-25T05:40:07.189Z,12.68
2022-08-25T05:45:10.008Z,12.00
2022-08-25T05:50:18.235Z,11.73
2022-08-25T05:55:20.674Z,12.30
2022-08-25T06:00:22.865Z,12.60
2022-08-25T06:05:25.454Z,11.57
2022-08-25T06:10:28.547Z,11.15
2022-08-25T06:15:31.567Z,11.40
2022-08-25T06:20:33.751Z,11.18
2022-08-25T06:25:35.850Z,10.93
2022-08-25T06:30:39.681Z,9.63
2022-08-25T06:35:43.999Z,9.32
2022-08-25T06:40:48.459Z,9.02
2022-08-25T06:45:50.540Z,8.48
2022-08-25T06:50:52.714Z,8.52
2022-08-25T06:56:00.519Z,5.22
2022-08-25T07:01:19.658Z,5.75
2022-08-25T07:06:22.551Z,4.30
2022-08-25T07:11:24.837Z,4.07
2022-08-25T07:16:29.891Z,4.72
2022-08-25T07:21:35.800Z,4.40
2022-08-25T07:26:40.574Z,4.30
2022-08-25T07:31:43.151Z,3.83
2022-08-25T07:36:45.370Z,4.00
2022-08-25T07:41:47.733Z,4.22
2022-08-25T07:46:54.737Z,3.83
2022-08-25T07:52:04.531Z,4.10
2022-08-25T07:57:09.181Z,3.85
2022-08-25T08:02:18.544Z,4.25
2022-08-25T08:07:41.127Z,5.05
2022-08-25T08:12:46.006Z,3.70
2022-08-25T08:17:48.205Z,3.47
2022-08-25T08:22:50.502Z,4.30
2022-08-25T08:28:01.725Z,6.72
2022-08-25T08:33:10.065Z,3.65
2022-08-25T08:38:18.459Z,3.40
2022-08-25T08:43:24.999Z,3.90
2022-08-25T08:48:50.036Z,3.15
2022-08-25T08:54:01.154Z,3.60
2022-08-25T08:59:09.744Z,3.83
2022-08-25T09:04:20.251Z,3.38
2022-08-25T09:09:29.686Z,3.13
2022-08-25T09:14:43.150Z,3.17
2022-08-25T09:20:18.389Z,3.50
2022-08-25T09:31:01.917Z,3.70
2022-08-25T09:36:06.455Z,3.63
2022-08-25T09:41:15.654Z,3.53
2022-08-25T09:46:28.014Z,3.35
2022-08-25T09:51:38.252Z,3.60
2022-08-25T09:56:54.223Z,3.38
2022-08-25T10:01:59.222Z,3.35
2022-08-25T10:07:03.907Z,3.33
2022-08-25T10:12:30.005Z,3.17
2022-08-25T10:17:33.430Z,3.55
2022-08-25T10:22:37.031Z,3.30
2022-08-25T10:27:47.528Z,3.70
2022-08-25T10:32:57.374Z,3.45
2022-08-25T10:38:23.967Z,3.55
2022-08-25T10:43:41.351Z,3.65
2022-08-25T10:49:02.990Z,3.63
2022-08-25T10:54:41.827Z,3.78
2022-08-25T10:59:44.132Z,3.60
2022-08-25T11:05:24.726Z,3.40
2022-08-25T11:10:38.696Z,3.53
2022-08-25T11:16:13.620Z,3.35
2022-08-25T11:21:23.457Z,3.50
2022-08-25T11:26:36.821Z,3.38
2022-08-25T11:31:53.526Z,3.40
2022-08-25T11:37:01.264Z,3.80
2022-08-25T11:42:36.678Z,3.53
2022-08-25T11:47:47.581Z,3.33
2022-08-25T11:52:56.524Z,3.42
2022-08-25T11:58:37.411Z,3.67
2022-08-25T12:03:39.404Z,3.35
2022-08-25T12:08:50.925Z,4.13
2022-08-25T12:13:53.165Z,4.30
2022-08-25T12:19:29.432Z,4.10
2022-08-25T12:24:48.282Z,4.13
2022-08-25T12:29:50.688Z,4.13
2022-08-25T12:35:16.038Z,4.80
2022-08-25T12:40:31.857Z,4.85
2022-08-25T12:45:47.694Z,4.97
2022-08-25T12:50:57.852Z,4.93
2022-08-25T12:56:28.686Z,12.23
2022-08-25T13:01:58.418Z,5.05
2022-08-25T13:07:08.128Z,4.72
2022-08-25T13:12:38.140Z,4.47
2022-08-25T13:22:47.485Z,3.97
2022-08-25T13:27:57.394Z,4.10
2022-08-25T13:33:00.842Z,4.68
2022-08-25T13:38:16.116Z,4.10
2022-08-25T13:43:18.258Z,4.20
2022-08-25T13:48:38.375Z,4.20
2022-08-25T13:53:40.899Z,4.15
2022-08-25T13:58:46.788Z,4.70
2022-08-25T14:03:49.040Z,4.95
2022-08-25T14:09:00.487Z,5.25
2022-08-25T14:14:09.624Z,4.97
2022-08-25T14:19:19.771Z,5.25
2022-08-25T14:29:26.508Z,5.10
2022-08-25T14:34:33.364Z,5.32
2022-08-25T14:39:35.508Z,5.57
2022-08-25T14:44:38.030Z,5.05
2022-08-25T14:49:45.930Z,5.20
2022-08-25T14:54:48.206Z,6.78
2022-08-25T14:59:50.407Z,5.60
2022-08-25T15:05:02.521Z,5.90
2022-08-25T15:10:06.204Z,5.10
2022-08-25T15:15:10.006Z,6.57
2022-08-25T15:20:15.484Z,5.85
2022-08-25T15:25:18.322Z,5.78
2022-08-25T15:30:20.455Z,5.80
2022-08-25T15:35:22.782Z,5.40
2022-08-25T15:40:31.561Z,5.68
2022-08-25T15:45:36.235Z,5.43
2022-08-25T15:50:38.816Z,5.47
2022-08-25T15:55:41.265Z,7.13
2022-08-25T16:00:45.096Z,6.00
2022-08-25T16:05:58.237Z,5.88
2022-08-25T16:11:00.821Z,5.45
2022-08-25T16:16:03.791Z,6.00
2022-08-25T16:21:13.136Z,7.35
2022-08-25T16:26:15.974Z,7.60
2022-08-25T16:31:18.831Z,7.13
2022-08-25T16:36:24.486Z,6.47
2022-08-25T16:41:34.333Z,7.32
2022-08-25T16:46:38.121Z,7.57
2022-08-25T16:51:43.545Z,8.32
2022-08-25T16:56:45.903Z,7.82
2022-08-25T17:01:48.462Z,7.88
2022-08-25T17:06:53.688Z,7.82
2022-08-25T17:11:57.359Z,8.43
2022-08-25T17:16:59.629Z,7.95
2022-08-25T17:22:01.820Z,9.20
2022-08-25T17:27:05.579Z,12.70
2022-08-25T17:32:07.790Z,11.38
2022-08-25T17:37:10.321Z,9.07
2022-08-25T17:42:12.595Z,8.77
2022-08-25T17:47:14.697Z,11.68
2022-08-25T17:52:21.501Z,9.48
2022-08-25T17:57:27.224Z,10.05
2022-08-25T18:02:30.317Z,8.40
2022-08-25T18:07:32.961Z,10.70
2022-08-25T18:12:37.671Z,9.40
2022-08-25T18:17:39.885Z,9.10
2022-08-25T18:22:44.089Z,9.43
2022-08-25T18:27:46.371Z,9.02
2022-08-25T18:32:48.865Z,13.00
2022-08-25T18:38:10.053Z,10.52
2022-08-25T18:43:14.407Z,10.93
2022-08-25T18:48:18.076Z,11.43
2022-08-25T18:53:30.721Z,12.73
2022-08-25T18:58:45.672Z,13.02
2022-08-25T19:03:48.003Z,11.00
2022-08-25T19:08:50.399Z,12.45
2022-08-25T19:14:12.294Z,15.27
2022-08-25T19:19:15.113Z,10.73
2022-08-25T19:24:18.177Z,9.70
2022-08-25T19:29:20.336Z,9.80
2022-08-25T19:34:30.435Z,10.55
2022-08-25T19:39:35.190Z,10.00
2022-08-25T19:44:41.823Z,8.98
2022-08-25T19:49:44.017Z,10.45
2022-08-25T19:54:46.715Z,11.45
2022-08-25T19:59:49.664Z,10.60
2022-08-25T20:04:55.245Z,11.70
2022-08-25T20:09:59.398Z,11.40
2022-08-25T20:15:02.569Z,10.95
2022-08-25T20:20:09.594Z,10.65
2022-08-25T20:25:17.800Z,11.20
2022-08-25T20:30:27.544Z,10.00
2022-08-25T20:35:29.899Z,11.85
2022-08-25T20:40:32.692Z,11.13
2022-08-25T20:45:34.782Z,11.27
2022-08-25T20:50:38.808Z,12.07
2022-08-25T20:55:43.669Z,10.77
2022-08-25T21:00:46.549Z,12.85
2022-08-25T21:05:53.932Z,11.52
2022-08-25T21:10:56.561Z,12.75
2022-08-25T21:16:02.152Z,12.50
2022-08-25T21:21:14.708Z,12.02
2022-08-25T21:26:25.246Z,12.70
2022-08-25T21:31:29.587Z,11.52
2022-08-25T21:36:32.390Z,11.30
2022-08-25T21:41:36.847Z,11.85
2022-08-25T21:46:39.447Z,11.80
2022-08-25T21:51:44.710Z,12.18
2022-08-25T21:56:55.006Z,11.85
2022-08-25T22:02:04.463Z,12.20
2022-08-25T22:07:08.115Z,12.68
2022-08-25T22:12:10.287Z,12.27
2022-08-25T22:17:16.937Z,11.65
2022-08-25T22:22:23.947Z,13.38
2022-08-25T22:27:26.243Z,12.57
2022-08-25T22:32:28.336Z,13.05
2022-08-25T22:37:30.658Z,12.35
2022-08-25T22:42:32.842Z,12.88
2022-08-25T22:47:35.402Z,14.48
2022-08-25T22:52:38.257Z,13.68
2022-08-25T22:57:45.102Z,14.20
2022-08-25T23:02:47.530Z,20.63
2022-08-25T23:07:50.646Z,14.48
2022-08-25T23:12:52.845Z,17.70
2022-08-25T23:17:54.970Z,19.33
2022-08-25T23:22:57.066Z,21.35
2022-08-25T23:27:59.363Z,23.23
2022-08-25T23:33:01.632Z,26.23
2022-08-25T23:38:03.754Z,26.77
2022-08-25T23:43:06.728Z,25.27
2022-08-25T23:48:09.305Z,18.20
2022-08-25T23:53:12.318Z,16.00
2022-08-25T23:58:15.523Z,22.13
